ADDS METAR Data INFO
IDs: Format: Raw Decoded Include TAF

Data at: 0027 UTC 11 Dec 2017

K7N0 102356Z AUTO 14003KT 10SM CLR 13/02 A3035 RMK AO2 SLP277 T01280017 10156 20128 51003
K7N0 102256Z AUTO 00000KT 10SM CLR 13/02 A3034 RMK AO2 SLP276 T01280022
K7N0 102156Z AUTO 03005KT 10SM CLR 14/02 A3035 RMK AO2 SLP277 T01390017
K7N0 102056Z AUTO 02006KT 10SM CLR 15/03 A3034 RMK AO2 SLP274 T01500028 56014
K7N0 101956Z AUTO VRB06KT 10SM CLR 15/03 A3034 RMK AO2 SLP275 T01500033
K7N0 101856Z AUTO VRB03KT 10SM CLR 14/01 A3036 RMK AO2 SLP280 T01440011
K7N0 101756Z AUTO 00000KT 10SM CLR 14/03 A3038 RMK AO2 SLP288 T01390028 10139 20050 58012
K7N0 101656Z AUTO 00000KT 10SM CLR 12/04 A3042 RMK AO2 SLP301 T01170039
K7N0 101556Z AUTO 00000KT 10SM CLR 11/05 A3043 RMK AO2 SLP306 T01110050
K7N0 101456Z AUTO 04004KT 10SM CLR 09/05 A3042 RMK AO2 SLP300 T00890050 53016
K7N0 101356Z AUTO 02003KT 10SM CLR 06/04 A3039 RMK AO2 SLP292 T00610039
K7N0 101256Z AUTO 00000KT 10SM CLR 06/03 A3038 RMK AO2 SLP288 T00560028
K7N0 101156Z AUTO 00000KT 10SM CLR 06/02 A3037 RMK AO2 SLP284 T00560022 10067 20050 53007
K7N0 101056Z AUTO 00000KT 10SM CLR 06/02 A3035 RMK AO2 SLP277 T00610017
K7N0 100956Z AUTO 00000KT 10SM CLR 06/02 A3035 RMK AO2 SLP278 T00560022
K7N0 100856Z AUTO 00000KT 10SM CLR 06/02 A3035 RMK AO2 SLP277 T00560017 53004
K7N0 100756Z AUTO 17004KT 10SM CLR 06/02 A3034 RMK AO2 SLP275 T00560017
K7N0 100656Z AUTO 00000KT 10SM CLR 06/02 A3034 RMK AO2 SLP273 T00610017
K7N0 100556Z AUTO VRB03KT 10SM CLR 07/01 A3034 RMK AO2 SLP273 T00670011 10089 20061 50013
K7N0 100456Z AUTO 19003KT 10SM CLR 07/01 A3034 RMK AO2 SLP276 T00720011 401110006
K7N0 100356Z AUTO 18003KT 10SM CLR 08/01 A3032 RMK AO2 SLP268 T00780006
K7N0 100256Z AUTO 00000KT 10SM CLR 08/00 A3030 RMK AO2 SLP260 T00780000 53022
K7N0 100156Z AUTO 00000KT 10SM CLR 08/M01 A3027 RMK AO2 SLP252 T00781006
K7N0 100056Z AUTO VRB03KT 10SM CLR 08/M01 A3025 RMK AO2 SLP245 T00831006
K7N0 092356Z AUTO VRB03KT 10SM CLR 09/M01 A3023 RMK AO2 SLP239 T00891006 10111 20078 53017
K7N0 092156Z AUTO VRB03KT 10SM CLR 09/M02 A3020 RMK AO2 SLP226 T00941022
K7N0 092056Z AUTO VRB05KT 10SM CLR 11/M03 A3019 RMK AO2 SLP222 T01111033 56017
K7N0 091956Z AUTO 30009KT 10SM CLR 10/M06 A3020 RMK AO2 SLP227 T01001061
K7N0 091856Z AUTO VRB05KT 10SM CLR 09/M04 A3021 RMK AO2 SLP230 T00891044
K7N0 091756Z AUTO 31006G14KT 10SM CLR 08/M05 A3024 RMK AO2 SLP239 T00781050 10078 20006 58008
K7N0 091656Z AUTO 26008KT 220V310 10SM CLR 07/M06 A3025 RMK AO2 SLP245 T00671061
K7N0 091556Z AUTO VRB04KT 10SM CLR 06/M02 A3027 RMK AO2 SLP249 T00561022
K7N0 091456Z AUTO VRB03KT 10SM CLR 04/M02 A3026 RMK AO2 SLP248 T00391022 51018
K7N0 091356Z AUTO 00000KT 10SM CLR 01/M01 A3025 RMK AO2 SLP243 T00111011 FZRANO
K7N0 091256Z AUTO 00000KT 10SM CLR 01/M02 A3023 RMK AO2 SLP237 T00111017 FZRANO TSNO